sensor_id;sensor_type;location;lat;lon;timestamp;P1;durP1;ratioP1;P2;durP2;ratioP2
66727;SDS011;53641;44.274;19.890;2022-11-15T00:01:55;58.15;;;35.25;;
66727;SDS011;53641;44.274;19.890;2022-11-15T00:04:21;56.40;;;36.70;;
66727;SDS011;53641;44.274;19.890;2022-11-15T00:06:47;58.03;;;35.50;;
66727;SDS011;53641;44.274;19.890;2022-11-15T00:09:13;55.17;;;35.08;;
66727;SDS011;53641;44.274;19.890;2022-11-15T00:11:44;63.80;;;38.25;;
66727;SDS011;53641;44.274;19.890;2022-11-15T00:14:10;62.00;;;37.75;;
66727;SDS011;53641;44.274;19.890;2022-11-15T00:16:36;62.20;;;38.72;;
66727;SDS011;53641;44.274;19.890;2022-11-15T00:19:02;56.20;;;37.15;;
66727;SDS011;53641;44.274;19.890;2022-11-15T00:21:27;60.67;;;37.75;;
66727;SDS011;53641;44.274;19.890;2022-11-15T00:23:53;62.10;;;38.47;;
66727;SDS011;53641;44.274;19.890;2022-11-15T00:26:19;57.33;;;36.40;;
66727;SDS011;53641;44.274;19.890;2022-11-15T00:28:45;58.55;;;36.88;;
66727;SDS011;53641;44.274;19.890;2022-11-15T00:31:14;59.22;;;35.92;;
66727;SDS011;53641;44.274;19.890;2022-11-15T00:33:39;59.92;;;35.92;;
66727;SDS011;53641;44.274;19.890;2022-11-15T00:36:08;56.03;;;34.67;;
66727;SDS011;53641;44.274;19.890;2022-11-15T00:38:38;56.67;;;36.88;;
66727;SDS011;53641;44.274;19.890;2022-11-15T00:41:05;68.13;;;41.45;;
66727;SDS011;53641;44.274;19.890;2022-11-15T00:43:32;65.88;;;40.78;;
66727;SDS011;53641;44.274;19.890;2022-11-15T00:45:58;69.75;;;41.58;;
66727;SDS011;53641;44.274;19.890;2022-11-15T00:48:24;66.78;;;42.97;;
66727;SDS011;53641;44.274;19.890;2022-11-15T00:50:50;66.18;;;41.33;;
66727;SDS011;53641;44.274;19.890;2022-11-15T00:53:16;64.50;;;38.80;;
66727;SDS011;53641;44.274;19.890;2022-11-15T00:55:42;66.55;;;38.30;;
66727;SDS011;53641;44.274;19.890;2022-11-15T00:58:08;59.10;;;36.45;;
66727;SDS011;53641;44.274;19.890;2022-11-15T01:00:34;51.60;;;34.03;;
66727;SDS011;53641;44.274;19.890;2022-11-15T01:03:00;54.92;;;33.53;;
66727;SDS011;53641;44.274;19.890;2022-11-15T01:05:26;51.58;;;33.85;;
66727;SDS011;53641;44.274;19.890;2022-11-15T01:07:53;53.53;;;34.13;;
66727;SDS011;53641;44.274;19.890;2022-11-15T01:10:19;51.80;;;31.40;;
66727;SDS011;53641;44.274;19.890;2022-11-15T01:12:45;49.95;;;31.90;;
66727;SDS011;53641;44.274;19.890;2022-11-15T01:15:14;43.38;;;28.83;;
66727;SDS011;53641;44.274;19.890;2022-11-15T01:17:40;46.80;;;30.67;;
66727;SDS011;53641;44.274;19.890;2022-11-15T01:20:06;45.90;;;29.52;;
66727;SDS011;53641;44.274;19.890;2022-11-15T01:22:32;44.58;;;30.17;;
66727;SDS011;53641;44.274;19.890;2022-11-15T01:24:58;48.72;;;29.60;;
66727;SDS011;53641;44.274;19.890;2022-11-15T01:27:24;45.33;;;29.75;;
66727;SDS011;53641;44.274;19.890;2022-11-15T01:29:49;50.90;;;30.27;;
66727;SDS011;53641;44.274;19.890;2022-11-15T01:32:15;48.50;;;30.02;;
66727;SDS011;53641;44.274;19.890;2022-11-15T01:34:41;43.80;;;30.00;;
66727;SDS011;53641;44.274;19.890;2022-11-15T01:37:07;45.03;;;29.52;;
66727;SDS011;53641;44.274;19.890;2022-11-15T01:39:33;48.05;;;31.25;;
66727;SDS011;53641;44.274;19.890;2022-11-15T01:42:02;48.75;;;30.30;;
66727;SDS011;53641;44.274;19.890;2022-11-15T01:44:46;47.65;;;30.08;;
66727;SDS011;53641;44.274;19.890;2022-11-15T01:47:17;49.53;;;32.42;;
66727;SDS011;53641;44.274;19.890;2022-11-15T01:49:50;49.22;;;32.40;;
66727;SDS011;53641;44.274;19.890;2022-11-15T01:52:19;51.20;;;32.92;;
66727;SDS011;53641;44.274;19.890;2022-11-15T01:54:49;52.45;;;33.90;;
66727;SDS011;53641;44.274;19.890;2022-11-15T01:57:19;58.42;;;38.38;;
66727;SDS011;53641;44.274;19.890;2022-11-15T01:59:45;67.13;;;40.75;;
66727;SDS011;53641;44.274;19.890;2022-11-15T02:02:12;67.63;;;42.63;;
66727;SDS011;53641;44.274;19.890;2022-11-15T02:04:45;65.90;;;43.60;;
66727;SDS011;53641;44.274;19.890;2022-11-15T02:07:13;70.45;;;45.60;;
66727;SDS011;53641;44.274;19.890;2022-11-15T02:09:41;66.55;;;43.42;;
66727;SDS011;53641;44.274;19.890;2022-11-15T02:12:08;75.82;;;44.28;;
66727;SDS011;53641;44.274;19.890;2022-11-15T02:14:38;65.55;;;43.20;;
66727;SDS011;53641;44.274;19.890;2022-11-15T02:17:13;65.90;;;42.90;;
66727;SDS011;53641;44.274;19.890;2022-11-15T02:19:52;65.63;;;43.38;;
66727;SDS011;53641;44.274;19.890;2022-11-15T02:22:58;67.60;;;43.10;;
66727;SDS011;53641;44.274;19.890;2022-11-15T02:25:38;65.88;;;42.60;;
66727;SDS011;53641;44.274;19.890;2022-11-15T02:28:16;62.63;;;42.38;;
66727;SDS011;53641;44.274;19.890;2022-11-15T02:31:11;61.20;;;41.38;;
66727;SDS011;53641;44.274;19.890;2022-11-15T02:33:50;65.07;;;40.17;;
66727;SDS011;53641;44.274;19.890;2022-11-15T02:36:28;67.18;;;41.17;;
66727;SDS011;53641;44.274;19.890;2022-11-15T02:39:19;60.72;;;41.00;;
66727;SDS011;53641;44.274;19.890;2022-11-15T02:41:52;66.18;;;40.95;;
66727;SDS011;53641;44.274;19.890;2022-11-15T02:44:52;62.17;;;40.72;;
66727;SDS011;53641;44.274;19.890;2022-11-15T02:47:21;58.22;;;39.17;;
66727;SDS011;53641;44.274;19.890;2022-11-15T02:49:50;55.13;;;37.83;;
66727;SDS011;53641;44.274;19.890;2022-11-15T02:52:21;64.10;;;40.00;;
66727;SDS011;53641;44.274;19.890;2022-11-15T02:54:53;63.50;;;41.42;;
66727;SDS011;53641;44.274;19.890;2022-11-15T02:57:21;65.43;;;40.72;;
66727;SDS011;53641;44.274;19.890;2022-11-15T03:00:10;61.80;;;40.80;;
66727;SDS011;53641;44.274;19.890;2022-11-15T03:02:56;59.13;;;39.13;;
66727;SDS011;53641;44.274;19.890;2022-11-15T03:05:38;63.40;;;41.00;;
66727;SDS011;53641;44.274;19.890;2022-11-15T03:08:10;59.25;;;40.17;;
66727;SDS011;53641;44.274;19.890;2022-11-15T03:10:46;63.80;;;43.08;;
66727;SDS011;53641;44.274;19.890;2022-11-15T03:13:38;67.45;;;43.97;;
66727;SDS011;53641;44.274;19.890;2022-11-15T03:16:15;67.93;;;42.63;;
66727;SDS011;53641;44.274;19.890;2022-11-15T03:18:47;68.28;;;42.72;;
66727;SDS011;53641;44.274;19.890;2022-11-15T03:21:18;66.75;;;43.42;;
66727;SDS011;53641;44.274;19.890;2022-11-15T03:23:46;61.97;;;42.92;;
66727;SDS011;53641;44.274;19.890;2022-11-15T03:26:14;70.97;;;45.70;;
66727;SDS011;53641;44.274;19.890;2022-11-15T03:28:56;65.95;;;44.20;;
66727;SDS011;53641;44.274;19.890;2022-11-15T03:31:27;65.78;;;44.30;;
66727;SDS011;53641;44.274;19.890;2022-11-15T03:34:12;68.68;;;46.58;;
66727;SDS011;53641;44.274;19.890;2022-11-15T03:36:44;81.45;;;51.25;;
66727;SDS011;53641;44.274;19.890;2022-11-15T03:39:10;86.70;;;54.47;;
66727;SDS011;53641;44.274;19.890;2022-11-15T03:42:17;91.18;;;57.83;;
66727;SDS011;53641;44.274;19.890;2022-11-15T03:44:35;94.65;;;59.45;;
66727;SDS011;53641;44.274;19.890;2022-11-15T03:47:12;93.68;;;60.85;;
66727;SDS011;53641;44.274;19.890;2022-11-15T03:49:44;95.07;;;60.33;;
66727;SDS011;53641;44.274;19.890;2022-11-15T03:52:16;90.63;;;57.97;;
66727;SDS011;53641;44.274;19.890;2022-11-15T03:54:50;99.50;;;64.57;;
66727;SDS011;53641;44.274;19.890;2022-11-15T03:57:17;96.30;;;62.35;;
66727;SDS011;53641;44.274;19.890;2022-11-15T03:59:43;96.35;;;62.97;;
66727;SDS011;53641;44.274;19.890;2022-11-15T04:02:09;101.28;;;64.13;;
66727;SDS011;53641;44.274;19.890;2022-11-15T04:04:35;101.50;;;65.57;;
66727;SDS011;53641;44.274;19.890;2022-11-15T04:07:00;95.60;;;64.13;;
66727;SDS011;53641;44.274;19.890;2022-11-15T04:09:26;100.82;;;65.78;;
66727;SDS011;53641;44.274;19.890;2022-11-15T04:11:52;101.38;;;62.70;;
66727;SDS011;53641;44.274;19.890;2022-11-15T04:14:18;104.25;;;66.97;;
66727;SDS011;53641;44.274;19.890;2022-11-15T04:16:43;99.53;;;64.47;;
66727;SDS011;53641;44.274;19.890;2022-11-15T04:19:09;102.07;;;66.47;;
66727;SDS011;53641;44.274;19.890;2022-11-15T04:21:55;109.03;;;70.15;;
66727;SDS011;53641;44.274;19.890;2022-11-15T04:24:40;106.95;;;65.47;;
66727;SDS011;53641;44.274;19.890;2022-11-15T04:27:06;105.97;;;68.22;;
66727;SDS011;53641;44.274;19.890;2022-11-15T04:29:32;106.15;;;68.55;;
66727;SDS011;53641;44.274;19.890;2022-11-15T04:32:03;109.57;;;70.45;;
66727;SDS011;53641;44.274;19.890;2022-11-15T04:34:29;113.75;;;72.13;;
66727;SDS011;53641;44.274;19.890;2022-11-15T04:36:55;112.55;;;70.82;;
66727;SDS011;53641;44.274;19.890;2022-11-15T04:39:37;103.30;;;67.88;;
66727;SDS011;53641;44.274;19.890;2022-11-15T04:42:03;98.00;;;66.05;;
66727;SDS011;53641;44.274;19.890;2022-11-15T04:44:29;107.15;;;68.22;;
66727;SDS011;53641;44.274;19.890;2022-11-15T04:46:54;103.85;;;66.38;;
66727;SDS011;53641;44.274;19.890;2022-11-15T04:49:20;96.93;;;62.35;;
66727;SDS011;53641;44.274;19.890;2022-11-15T04:51:46;95.07;;;61.10;;
66727;SDS011;53641;44.274;19.890;2022-11-15T04:54:12;97.40;;;62.35;;
66727;SDS011;53641;44.274;19.890;2022-11-15T04:56:38;104.28;;;64.50;;
66727;SDS011;53641;44.274;19.890;2022-11-15T04:59:03;99.28;;;63.47;;
66727;SDS011;53641;44.274;19.890;2022-11-15T05:01:29;91.80;;;62.42;;
66727;SDS011;53641;44.274;19.890;2022-11-15T05:03:55;86.53;;;59.53;;
66727;SDS011;53641;44.274;19.890;2022-11-15T05:06:41;91.72;;;58.80;;
66727;SDS011;53641;44.274;19.890;2022-11-15T05:09:07;91.72;;;59.42;;
66727;SDS011;53641;44.274;19.890;2022-11-15T05:11:33;89.07;;;58.35;;
66727;SDS011;53641;44.274;19.890;2022-11-15T05:13:59;86.00;;;55.10;;
66727;SDS011;53641;44.274;19.890;2022-11-15T05:16:24;81.97;;;51.42;;
66727;SDS011;53641;44.274;19.890;2022-11-15T05:18:51;82.70;;;54.80;;
66727;SDS011;53641;44.274;19.890;2022-11-15T05:21:17;87.35;;;57.25;;
66727;SDS011;53641;44.274;19.890;2022-11-15T05:23:43;78.43;;;52.17;;
66727;SDS011;53641;44.274;19.890;2022-11-15T05:26:09;86.38;;;53.90;;
66727;SDS011;53641;44.274;19.890;2022-11-15T05:28:36;83.22;;;54.42;;
66727;SDS011;53641;44.274;19.890;2022-11-15T05:31:02;87.28;;;54.70;;
66727;SDS011;53641;44.274;19.890;2022-11-15T05:33:29;89.95;;;54.72;;
66727;SDS011;53641;44.274;19.890;2022-11-15T05:35:57;83.13;;;54.50;;
66727;SDS011;53641;44.274;19.890;2022-11-15T05:38:29;82.18;;;52.70;;
66727;SDS011;53641;44.274;19.890;2022-11-15T05:40:55;85.63;;;55.58;;
66727;SDS011;53641;44.274;19.890;2022-11-15T05:43:21;82.82;;;54.58;;
66727;SDS011;53641;44.274;19.890;2022-11-15T05:45:48;95.82;;;59.78;;
66727;SDS011;53641;44.274;19.890;2022-11-15T05:48:14;81.90;;;54.65;;
66727;SDS011;53641;44.274;19.890;2022-11-15T05:50:41;90.20;;;57.75;;
66727;SDS011;53641;44.274;19.890;2022-11-15T05:53:09;87.30;;;54.42;;
66727;SDS011;53641;44.274;19.890;2022-11-15T05:55:38;86.38;;;57.65;;
66727;SDS011;53641;44.274;19.890;2022-11-15T05:58:05;87.70;;;56.30;;
66727;SDS011;53641;44.274;19.890;2022-11-15T06:00:30;89.70;;;58.42;;
66727;SDS011;53641;44.274;19.890;2022-11-15T06:02:56;88.53;;;59.90;;
66727;SDS011;53641;44.274;19.890;2022-11-15T06:05:22;91.88;;;60.17;;
66727;SDS011;53641;44.274;19.890;2022-11-15T06:07:48;93.05;;;61.85;;
66727;SDS011;53641;44.274;19.890;2022-11-15T06:10:14;92.68;;;61.30;;
66727;SDS011;53641;44.274;19.890;2022-11-15T06:12:39;97.53;;;65.15;;
66727;SDS011;53641;44.274;19.890;2022-11-15T06:15:05;107.97;;;69.35;;
66727;SDS011;53641;44.274;19.890;2022-11-15T06:17:32;110.20;;;69.80;;
66727;SDS011;53641;44.274;19.890;2022-11-15T06:19:57;105.45;;;71.97;;
66727;SDS011;53641;44.274;19.890;2022-11-15T06:22:23;104.32;;;68.85;;
66727;SDS011;53641;44.274;19.890;2022-11-15T06:24:49;117.28;;;74.95;;
66727;SDS011;53641;44.274;19.890;2022-11-15T06:27:15;116.00;;;75.70;;
66727;SDS011;53641;44.274;19.890;2022-11-15T06:29:40;109.35;;;73.43;;
66727;SDS011;53641;44.274;19.890;2022-11-15T06:32:06;111.95;;;73.90;;
66727;SDS011;53641;44.274;19.890;2022-11-15T06:34:32;115.65;;;74.13;;
66727;SDS011;53641;44.274;19.890;2022-11-15T06:36:58;115.10;;;75.43;;
66727;SDS011;53641;44.274;19.890;2022-11-15T06:39:23;116.28;;;75.20;;
66727;SDS011;53641;44.274;19.890;2022-11-15T06:41:49;118.18;;;76.13;;
66727;SDS011;53641;44.274;19.890;2022-11-15T06:44:15;111.82;;;69.63;;
66727;SDS011;53641;44.274;19.890;2022-11-15T06:46:41;99.63;;;63.38;;
66727;SDS011;53641;44.274;19.890;2022-11-15T06:49:07;98.10;;;63.25;;
66727;SDS011;53641;44.274;19.890;2022-11-15T06:51:32;99.35;;;64.93;;
66727;SDS011;53641;44.274;19.890;2022-11-15T06:53:58;100.35;;;62.80;;
66727;SDS011;53641;44.274;19.890;2022-11-15T06:56:24;108.38;;;69.95;;
66727;SDS011;53641;44.274;19.890;2022-11-15T06:58:50;106.93;;;70.72;;
66727;SDS011;53641;44.274;19.890;2022-11-15T07:01:16;113.72;;;74.88;;
66727;SDS011;53641;44.274;19.890;2022-11-15T07:03:41;109.32;;;72.35;;
66727;SDS011;53641;44.274;19.890;2022-11-15T07:06:08;108.78;;;72.38;;
66727;SDS011;53641;44.274;19.890;2022-11-15T07:08:34;112.93;;;72.45;;
66727;SDS011;53641;44.274;19.890;2022-11-15T07:11:01;109.32;;;73.10;;
66727;SDS011;53641;44.274;19.890;2022-11-15T07:13:30;110.80;;;72.97;;
66727;SDS011;53641;44.274;19.890;2022-11-15T07:16:01;111.53;;;74.88;;
66727;SDS011;53641;44.274;19.890;2022-11-15T07:18:27;112.75;;;74.20;;
66727;SDS011;53641;44.274;19.890;2022-11-15T07:20:53;111.32;;;73.05;;
66727;SDS011;53641;44.274;19.890;2022-11-15T07:23:19;116.05;;;77.13;;
66727;SDS011;53641;44.274;19.890;2022-11-15T07:25:47;117.72;;;78.57;;
66727;SDS011;53641;44.274;19.890;2022-11-15T07:28:12;122.70;;;78.55;;
66727;SDS011;53641;44.274;19.890;2022-11-15T07:30:38;118.60;;;80.50;;
66727;SDS011;53641;44.274;19.890;2022-11-15T07:33:04;121.35;;;79.53;;
66727;SDS011;53641;44.274;19.890;2022-11-15T07:35:30;122.45;;;81.85;;
66727;SDS011;53641;44.274;19.890;2022-11-15T07:38:02;127.65;;;85.18;;
66727;SDS011;53641;44.274;19.890;2022-11-15T07:40:29;120.57;;;81.55;;
66727;SDS011;53641;44.274;19.890;2022-11-15T07:43:03;94.45;;;65.68;;
66727;SDS011;53641;44.274;19.890;2022-11-15T07:45:33;95.07;;;63.70;;
66727;SDS011;53641;44.274;19.890;2022-11-15T07:48:05;95.32;;;63.42;;
66727;SDS011;53641;44.274;19.890;2022-11-15T07:50:31;90.43;;;58.97;;
66727;SDS011;53641;44.274;19.890;2022-11-15T07:52:57;88.10;;;61.60;;
66727;SDS011;53641;44.274;19.890;2022-11-15T07:55:25;87.50;;;61.88;;
66727;SDS011;53641;44.274;19.890;2022-11-15T07:57:52;92.72;;;64.85;;
66727;SDS011;53641;44.274;19.890;2022-11-15T08:00:24;94.88;;;64.85;;
66727;SDS011;53641;44.274;19.890;2022-11-15T08:02:50;101.05;;;67.85;;
66727;SDS011;53641;44.274;19.890;2022-11-15T08:05:16;106.28;;;68.65;;
66727;SDS011;53641;44.274;19.890;2022-11-15T08:07:41;114.50;;;77.28;;
66727;SDS011;53641;44.274;19.890;2022-11-15T08:10:07;118.55;;;81.80;;
66727;SDS011;53641;44.274;19.890;2022-11-15T08:12:33;118.20;;;79.85;;
66727;SDS011;53641;44.274;19.890;2022-11-15T08:14:59;104.97;;;71.43;;
66727;SDS011;53641;44.274;19.890;2022-11-15T08:17:25;101.80;;;71.32;;
66727;SDS011;53641;44.274;19.890;2022-11-15T08:19:51;96.68;;;66.13;;
66727;SDS011;53641;44.274;19.890;2022-11-15T08:22:17;87.57;;;57.28;;
66727;SDS011;53641;44.274;19.890;2022-11-15T08:24:43;78.18;;;54.78;;
66727;SDS011;53641;44.274;19.890;2022-11-15T08:27:09;82.28;;;56.42;;
66727;SDS011;53641;44.274;19.890;2022-11-15T08:29:40;83.10;;;57.30;;
66727;SDS011;53641;44.274;19.890;2022-11-15T08:32:07;88.93;;;60.63;;
66727;SDS011;53641;44.274;19.890;2022-11-15T08:34:36;82.57;;;55.08;;
66727;SDS011;53641;44.274;19.890;2022-11-15T08:37:02;89.07;;;60.40;;
66727;SDS011;53641;44.274;19.890;2022-11-15T08:39:28;89.22;;;61.45;;
66727;SDS011;53641;44.274;19.890;2022-11-15T08:41:54;92.60;;;60.67;;
66727;SDS011;53641;44.274;19.890;2022-11-15T08:44:20;85.93;;;60.53;;
66727;SDS011;53641;44.274;19.890;2022-11-15T08:46:46;86.55;;;59.65;;
66727;SDS011;53641;44.274;19.890;2022-11-15T08:49:11;88.53;;;60.88;;
66727;SDS011;53641;44.274;19.890;2022-11-15T08:51:37;90.00;;;62.95;;
66727;SDS011;53641;44.274;19.890;2022-11-15T08:54:03;93.85;;;64.57;;
66727;SDS011;53641;44.274;19.890;2022-11-15T08:56:30;93.70;;;63.58;;
66727;SDS011;53641;44.274;19.890;2022-11-15T08:58:56;96.05;;;65.63;;
66727;SDS011;53641;44.274;19.890;2022-11-15T09:01:22;92.03;;;63.08;;
66727;SDS011;53641;44.274;19.890;2022-11-15T09:03:48;89.97;;;62.58;;
66727;SDS011;53641;44.274;19.890;2022-11-15T09:06:14;97.00;;;64.82;;
66727;SDS011;53641;44.274;19.890;2022-11-15T09:08:39;99.30;;;65.90;;
66727;SDS011;53641;44.274;19.890;2022-11-15T09:11:09;100.63;;;67.60;;
66727;SDS011;53641;44.274;19.890;2022-11-15T09:13:35;100.03;;;67.80;;
66727;SDS011;53641;44.274;19.890;2022-11-15T09:16:02;106.57;;;69.57;;
66727;SDS011;53641;44.274;19.890;2022-11-15T09:18:31;98.13;;;67.35;;
66727;SDS011;53641;44.274;19.890;2022-11-15T09:20:58;94.88;;;64.93;;
66727;SDS011;53641;44.274;19.890;2022-11-15T09:23:33;107.32;;;68.70;;
66727;SDS011;53641;44.274;19.890;2022-11-15T09:26:00;102.57;;;71.20;;
66727;SDS011;53641;44.274;19.890;2022-11-15T09:28:27;107.10;;;74.00;;
66727;SDS011;53641;44.274;19.890;2022-11-15T09:30:57;116.22;;;80.10;;
66727;SDS011;53641;44.274;19.890;2022-11-15T09:33:23;134.02;;;90.72;;
66727;SDS011;53641;44.274;19.890;2022-11-15T09:35:49;140.13;;;94.80;;
66727;SDS011;53641;44.274;19.890;2022-11-15T09:38:15;134.82;;;93.60;;
66727;SDS011;53641;44.274;19.890;2022-11-15T09:40:41;137.55;;;96.40;;
66727;SDS011;53641;44.274;19.890;2022-11-15T09:43:11;146.32;;;100.93;;
66727;SDS011;53641;44.274;19.890;2022-11-15T09:45:56;150.23;;;104.03;;
66727;SDS011;53641;44.274;19.890;2022-11-15T09:48:32;139.82;;;94.47;;
66727;SDS011;53641;44.274;19.890;2022-11-15T09:51:04;138.90;;;97.45;;
66727;SDS011;53641;44.274;19.890;2022-11-15T09:53:39;129.63;;;89.13;;
66727;SDS011;53641;44.274;19.890;2022-11-15T09:56:15;127.13;;;88.80;;
66727;SDS011;53641;44.274;19.890;2022-11-15T09:58:57;127.28;;;87.70;;
66727;SDS011;53641;44.274;19.890;2022-11-15T10:01:49;122.10;;;86.93;;
66727;SDS011;53641;44.274;19.890;2022-11-15T10:04:26;118.00;;;83.95;;
66727;SDS011;53641;44.274;19.890;2022-11-15T10:07:16;131.75;;;84.20;;
66727;SDS011;53641;44.274;19.890;2022-11-15T10:09:59;117.35;;;80.10;;
66727;SDS011;53641;44.274;19.890;2022-11-15T10:12:35;112.90;;;77.38;;
66727;SDS011;53641;44.274;19.890;2022-11-15T10:15:02;105.70;;;72.30;;
66727;SDS011;53641;44.274;19.890;2022-11-15T10:17:36;116.20;;;74.70;;
66727;SDS011;53641;44.274;19.890;2022-11-15T10:20:27;90.07;;;61.45;;
66727;SDS011;53641;44.274;19.890;2022-11-15T10:22:59;94.18;;;64.00;;
66727;SDS011;53641;44.274;19.890;2022-11-15T10:25:35;79.15;;;54.40;;
66727;SDS011;53641;44.274;19.890;2022-11-15T10:28:16;78.15;;;53.25;;
66727;SDS011;53641;44.274;19.890;2022-11-15T10:30:47;76.97;;;51.03;;
66727;SDS011;53641;44.274;19.890;2022-11-15T10:33:23;76.25;;;52.53;;
66727;SDS011;53641;44.274;19.890;2022-11-15T10:36:18;72.63;;;48.50;;
66727;SDS011;53641;44.274;19.890;2022-11-15T10:38:52;77.20;;;50.72;;
66727;SDS011;53641;44.274;19.890;2022-11-15T10:41:22;77.07;;;50.30;;
66727;SDS011;53641;44.274;19.890;2022-11-15T10:44:21;79.45;;;51.50;;
66727;SDS011;53641;44.274;19.890;2022-11-15T10:47:03;74.60;;;45.75;;
66727;SDS011;53641;44.274;19.890;2022-11-15T10:49:32;68.00;;;43.25;;
66727;SDS011;53641;44.274;19.890;2022-11-15T10:52:04;67.05;;;43.42;;
66727;SDS011;53641;44.274;19.890;2022-11-15T10:54:41;70.90;;;43.92;;
66727;SDS011;53641;44.274;19.890;2022-11-15T10:57:20;58.20;;;39.63;;
66727;SDS011;53641;44.274;19.890;2022-11-15T10:59:49;69.32;;;40.35;;
66727;SDS011;53641;44.274;19.890;2022-11-15T11:02:44;62.25;;;39.38;;
66727;SDS011;53641;44.274;19.890;2022-11-15T11:05:41;60.10;;;38.17;;
66727;SDS011;53641;44.274;19.890;2022-11-15T11:08:03;58.17;;;39.17;;
66727;SDS011;53641;44.274;19.890;2022-11-15T11:10:30;50.95;;;36.65;;
66727;SDS011;53641;44.274;19.890;2022-11-15T11:13:19;53.50;;;35.78;;
66727;SDS011;53641;44.274;19.890;2022-11-15T11:15:54;53.45;;;37.85;;
66727;SDS011;53641;44.274;19.890;2022-11-15T11:18:45;51.45;;;35.97;;
66727;SDS011;53641;44.274;19.890;2022-11-15T11:21:17;53.28;;;35.95;;
66727;SDS011;53641;44.274;19.890;2022-11-15T11:24:14;51.15;;;35.33;;
66727;SDS011;53641;44.274;19.890;2022-11-15T11:27:21;67.53;;;40.47;;
66727;SDS011;53641;44.274;19.890;2022-11-15T11:31:04;54.30;;;35.38;;
66727;SDS011;53641;44.274;19.890;2022-11-15T11:32:49;53.80;;;34.38;;
66727;SDS011;53641;44.274;19.890;2022-11-15T11:35:28;52.17;;;35.55;;
66727;SDS011;53641;44.274;19.890;2022-11-15T11:38:09;49.58;;;34.63;;
66727;SDS011;53641;44.274;19.890;2022-11-15T11:41:39;53.55;;;34.53;;
66727;SDS011;53641;44.274;19.890;2022-11-15T11:44:06;59.20;;;33.30;;
66727;SDS011;53641;44.274;19.890;2022-11-15T11:47:57;49.03;;;31.40;;
66727;SDS011;53641;44.274;19.890;2022-11-15T11:53:11;55.83;;;33.63;;
66727;SDS011;53641;44.274;19.890;2022-11-15T11:55:02;49.97;;;33.33;;
66727;SDS011;53641;44.274;19.890;2022-11-15T11:57:41;54.75;;;32.80;;
66727;SDS011;53641;44.274;19.890;2022-11-15T12:00:14;50.08;;;31.05;;
66727;SDS011;53641;44.274;19.890;2022-11-15T12:02:47;51.22;;;31.42;;
66727;SDS011;53641;44.274;19.890;2022-11-15T12:05:42;43.90;;;30.27;;
66727;SDS011;53641;44.274;19.890;2022-11-15T12:08:26;44.65;;;29.55;;
66727;SDS011;53641;44.274;19.890;2022-11-15T12:11:15;40.83;;;28.95;;
66727;SDS011;53641;44.274;19.890;2022-11-15T12:13:45;44.17;;;30.52;;
66727;SDS011;53641;44.274;19.890;2022-11-15T12:16:28;44.60;;;31.15;;
66727;SDS011;53641;44.274;19.890;2022-11-15T12:21:39;46.75;;;33.15;;
66727;SDS011;53641;44.274;19.890;2022-11-15T12:27:19;53.58;;;34.50;;
66727;SDS011;53641;44.274;19.890;2022-11-15T12:29:56;48.75;;;32.22;;
66727;SDS011;53641;44.274;19.890;2022-11-15T12:32:30;45.08;;;30.75;;
66727;SDS011;53641;44.274;19.890;2022-11-15T12:35:01;47.25;;;32.60;;
66727;SDS011;53641;44.274;19.890;2022-11-15T12:40:22;41.90;;;28.10;;
66727;SDS011;53641;44.274;19.890;2022-11-15T12:43:07;43.07;;;27.20;;
66727;SDS011;53641;44.274;19.890;2022-11-15T12:45:56;46.95;;;30.10;;
66727;SDS011;53641;44.274;19.890;2022-11-15T12:51:16;48.50;;;29.73;;
66727;SDS011;53641;44.274;19.890;2022-11-15T12:53:44;43.70;;;26.27;;
66727;SDS011;53641;44.274;19.890;2022-11-15T12:56:19;38.65;;;26.40;;
66727;SDS011;53641;44.274;19.890;2022-11-15T12:58:53;41.72;;;27.27;;
66727;SDS011;53641;44.274;19.890;2022-11-15T13:04:22;36.90;;;25.08;;
66727;SDS011;53641;44.274;19.890;2022-11-15T13:06:52;39.13;;;25.20;;
66727;SDS011;53641;44.274;19.890;2022-11-15T13:12:49;38.85;;;24.20;;
66727;SDS011;53641;44.274;19.890;2022-11-15T13:15:30;40.75;;;23.60;;
66727;SDS011;53641;44.274;19.890;2022-11-15T13:18:27;40.63;;;24.60;;
66727;SDS011;53641;44.274;19.890;2022-11-15T13:20:55;42.47;;;25.67;;
66727;SDS011;53641;44.274;19.890;2022-11-15T13:23:21;43.63;;;26.45;;
66727;SDS011;53641;44.274;19.890;2022-11-15T13:26:12;42.45;;;27.45;;
66727;SDS011;53641;44.274;19.890;2022-11-15T13:28:42;45.63;;;27.10;;
66727;SDS011;53641;44.274;19.890;2022-11-15T13:31:17;41.80;;;26.45;;
66727;SDS011;53641;44.274;19.890;2022-11-15T13:33:46;41.55;;;26.17;;
66727;SDS011;53641;44.274;19.890;2022-11-15T13:36:13;43.95;;;28.02;;
66727;SDS011;53641;44.274;19.890;2022-11-15T13:38:42;52.75;;;32.45;;
66727;SDS011;53641;44.274;19.890;2022-11-15T13:41:19;48.38;;;29.77;;
66727;SDS011;53641;44.274;19.890;2022-11-15T13:43:50;45.85;;;29.05;;
66727;SDS011;53641;44.274;19.890;2022-11-15T13:46:27;42.75;;;28.20;;
66727;SDS011;53641;44.274;19.890;2022-11-15T13:48:56;41.53;;;28.90;;
66727;SDS011;53641;44.274;19.890;2022-11-15T13:51:32;49.05;;;31.10;;
66727;SDS011;53641;44.274;19.890;2022-11-15T13:54:19;49.08;;;30.42;;
66727;SDS011;53641;44.274;19.890;2022-11-15T13:56:53;50.17;;;34.70;;
66727;SDS011;53641;44.274;19.890;2022-11-15T13:59:31;45.17;;;31.30;;
66727;SDS011;53641;44.274;19.890;2022-11-15T14:02:01;49.55;;;32.83;;
66727;SDS011;53641;44.274;19.890;2022-11-15T14:04:36;48.65;;;32.40;;
66727;SDS011;53641;44.274;19.890;2022-11-15T14:07:04;56.53;;;36.13;;
66727;SDS011;53641;44.274;19.890;2022-11-15T14:09:36;66.03;;;38.40;;
66727;SDS011;53641;44.274;19.890;2022-11-15T14:12:19;73.25;;;45.38;;
66727;SDS011;53641;44.274;19.890;2022-11-15T14:14:48;67.90;;;43.53;;
66727;SDS011;53641;44.274;19.890;2022-11-15T14:17:33;78.72;;;44.25;;
66727;SDS011;53641;44.274;19.890;2022-11-15T14:20:01;77.70;;;46.72;;
66727;SDS011;53641;44.274;19.890;2022-11-15T14:22:28;78.18;;;45.70;;
66727;SDS011;53641;44.274;19.890;2022-11-15T14:25:18;77.43;;;45.38;;
66727;SDS011;53641;44.274;19.890;2022-11-15T14:28:43;66.22;;;41.70;;
66727;SDS011;53641;44.274;19.890;2022-11-15T14:30:52;74.35;;;41.60;;
66727;SDS011;53641;44.274;19.890;2022-11-15T14:33:35;72.55;;;44.90;;
66727;SDS011;53641;44.274;19.890;2022-11-15T14:36:10;63.42;;;38.78;;
66727;SDS011;53641;44.274;19.890;2022-11-15T14:38:41;66.70;;;38.17;;
66727;SDS011;53641;44.274;19.890;2022-11-15T14:41:19;58.42;;;36.38;;
66727;SDS011;53641;44.274;19.890;2022-11-15T14:43:45;57.08;;;36.60;;
66727;SDS011;53641;44.274;19.890;2022-11-15T14:46:12;94.38;;;57.92;;
66727;SDS011;53641;44.274;19.890;2022-11-15T14:48:37;72.25;;;46.42;;
66727;SDS011;53641;44.274;19.890;2022-11-15T14:51:08;72.90;;;44.33;;
66727;SDS011;53641;44.274;19.890;2022-11-15T14:53:34;88.03;;;48.38;;